Time;durP1;ratioP1;P1;durP2;ratioP2;P2;SDS_P1;SDS_P2;PMS_P1;PMS_P2;Temp;Humidity;BMP_temperature;BMP_pressure;BME280_temperature;BME280_humidity;BME280_pressure;Samples;Min_cycle;Max_cycle;Signal;HPM_P1;HPM_P2
2021/11/26 00:01:39;;;;;;;34.08;19.08;;;2.00;99.90;;;;;;4994823;28;20097;-77
2021/11/26 00:04:07;;;;;;;31.58;18.58;;;2.10;99.90;;;;;;4994703;28;20478;-77
2021/11/26 00:06:33;;;;;;;39.85;21.90;;;2.10;99.90;;;;;;4995081;28;20057;-77
2021/11/26 00:09:00;;;;;;;41.97;22.75;;;2.00;99.90;;;;;;4994202;28;20074;-77
2021/11/26 00:11:26;;;;;;;36.88;20.67;;;1.90;99.90;;;;;;4988027;28;20049;-78
2021/11/26 00:14:02;;;;;;;39.20;21.13;;;2.00;99.90;;;;;;4994919;28;20475;-78
2021/11/26 00:16:38;;;;;;;38.20;22.27;;;2.00;99.90;;;;;;4994690;28;20061;-77
2021/11/26 00:19:05;;;;;;;37.47;21.05;;;2.00;99.90;;;;;;4993732;28;20121;-79
2021/11/26 00:21:36;;;;;;;40.28;22.30;;;2.00;99.90;;;;;;4994500;28;20097;-78
2021/11/26 00:24:03;;;;;;;36.05;20.98;;;2.10;99.90;;;;;;4994394;28;20403;-79
2021/11/26 00:26:29;;;;;;;39.92;21.60;;;2.10;99.90;;;;;;4994678;28;20038;-79
2021/11/26 00:28:55;;;;;;;42.05;23.30;;;2.00;99.90;;;;;;4994405;28;20377;-78
2021/11/26 00:31:21;;;;;;;38.17;21.48;;;2.10;99.90;;;;;;4977508;28;20113;-77
2021/11/26 00:33:46;;;;;;;37.38;21.33;;;2.10;99.90;;;;;;4994841;28;20069;-77
2021/11/26 00:36:12;;;;;;;34.97;20.88;;;2.00;99.90;;;;;;4994598;28;20049;-79
2021/11/26 00:38:38;;;;;;;39.78;21.23;;;2.00;99.90;;;;;;4993893;28;20042;-80
2021/11/26 00:41:03;;;;;;;35.88;20.05;;;2.10;99.90;;;;;;4993353;28;20050;-78
2021/11/26 00:43:30;;;;;;;42.30;22.58;;;3.70;99.90;;;;;;4994996;28;20037;-77
2021/11/26 00:45:56;;;;;;;37.55;20.80;;;2.10;99.90;;;;;;4994169;28;20034;-77
2021/11/26 00:48:22;;;;;;;40.55;21.83;;;2.10;99.90;;;;;;4993503;28;20029;-82
2021/11/26 00:50:48;;;;;;;36.08;20.45;;;2.20;99.90;;;;;;4993456;28;20053;-78
2021/11/26 00:53:14;;;;;;;39.75;21.08;;;2.20;99.90;;;;;;4993796;28;20022;-78
2021/11/26 00:55:39;;;;;;;42.72;21.77;;;2.10;99.90;;;;;;4993977;28;20053;-78
2021/11/26 00:58:05;;;;;;;37.47;21.80;;;2.20;99.90;;;;;;4993302;28;20538;-77
2021/11/26 01:00:31;;;;;;;41.88;22.75;;;2.20;99.90;;;;;;4992948;28;20022;-79
2021/11/26 01:02:58;;;;;;;37.83;21.10;;;3.80;99.90;;;;;;4993572;28;20033;-79
2021/11/26 01:05:24;;;;;;;42.67;23.05;;;2.20;99.90;;;;;;4993922;28;20041;-77
2021/11/26 01:07:49;;;;;;;41.45;21.65;;;2.20;99.90;;;;;;4994321;28;20034;-79
2021/11/26 01:10:19;;;;;;;37.70;22.25;;;2.20;99.90;;;;;;4993292;28;20026;-80
2021/11/26 01:12:46;;;;;;;40.67;23.02;;;2.30;99.90;;;;;;4993853;28;20101;-77
2021/11/26 01:15:22;;;;;;;42.47;23.40;;;2.30;99.90;;;;;;4994065;28;20022;-78
2021/11/26 01:17:47;;;;;;;39.38;21.25;;;2.20;99.90;;;;;;4993565;28;20030;-79
2021/11/26 01:20:21;;;;;;;38.35;20.35;;;2.40;99.90;;;;;;4993273;28;20052;-78
2021/11/26 01:22:47;;;;;;;38.35;21.85;;;2.20;99.90;;;;;;4994029;28;20033;-78
2021/11/26 01:25:13;;;;;;;34.70;20.77;;;2.20;99.90;;;;;;4993283;28;20038;-78
2021/11/26 01:27:39;;;;;;;40.85;22.05;;;2.10;99.90;;;;;;4993244;28;20026;-78
2021/11/26 01:30:26;;;;;;;37.13;21.98;;;2.10;99.90;;;;;;4992606;28;20603;-78
2021/11/26 01:32:54;;;;;;;38.72;21.63;;;2.20;99.90;;;;;;4993332;28;20402;-79
2021/11/26 01:35:20;;;;;;;37.40;20.38;;;2.20;99.90;;;;;;4993154;28;20030;-78
2021/11/26 01:37:47;;;;;;;41.58;22.75;;;2.10;99.90;;;;;;4975838;28;20058;-78
2021/11/26 01:40:14;;;;;;;41.85;22.35;;;2.20;99.90;;;;;;4991968;28;20037;-78
2021/11/26 01:42:39;;;;;;;39.88;21.67;;;2.20;99.90;;;;;;4993164;28;20057;-78
2021/11/26 01:45:06;;;;;;;39.78;21.58;;;2.30;99.90;;;;;;4993013;28;20026;-78
2021/11/26 01:47:32;;;;;;;38.20;22.77;;;2.20;99.90;;;;;;4993224;28;20127;-79
2021/11/26 01:49:57;;;;;;;41.90;21.33;;;2.40;99.90;;;;;;4992139;28;20118;-78
2021/11/26 01:52:23;;;;;;;39.58;22.50;;;2.30;99.90;;;;;;4992201;28;20069;-78
2021/11/26 01:54:49;;;;;;;37.80;21.63;;;2.20;99.90;;;;;;4975549;28;20038;-78
2021/11/26 01:57:18;;;;;;;41.78;22.63;;;2.20;99.90;;;;;;4993144;28;20034;-78
2021/11/26 01:59:47;;;;;;;45.00;22.50;;;2.30;99.90;;;;;;4992193;28;20042;-78
2021/11/26 02:02:12;;;;;;;37.17;21.08;;;2.50;99.90;;;;;;4993254;28;20031;-78
2021/11/26 02:04:38;;;;;;;38.28;21.50;;;2.30;99.90;;;;;;4993595;28;20038;-78
2021/11/26 02:07:03;;;;;;;40.95;21.55;;;2.30;99.90;;;;;;4994993;28;20074;-77
2021/11/26 02:09:29;;;;;;;42.00;22.55;;;2.40;99.90;;;;;;5006869;28;20034;-79
2021/11/26 02:11:54;;;;;;;40.83;22.42;;;2.30;99.90;;;;;;5001655;28;20085;-78
2021/11/26 02:14:20;;;;;;;42.30;22.92;;;2.30;99.90;;;;;;4994394;28;20439;-78
2021/11/26 02:16:49;;;;;;;39.20;21.52;;;2.30;99.90;;;;;;4993816;28;20030;-78
2021/11/26 02:19:15;;;;;;;39.78;21.80;;;2.10;99.90;;;;;;4992043;28;20105;-77
2021/11/26 02:21:42;;;;;;;41.50;22.42;;;2.20;99.90;;;;;;4992938;28;20042;-78
2021/11/26 02:24:08;;;;;;;40.58;22.05;;;2.20;99.90;;;;;;4992788;28;20037;-78
2021/11/26 02:26:39;;;;;;;39.42;22.27;;;2.20;99.90;;;;;;4976106;28;20514;-79
2021/11/26 02:29:05;;;;;;;38.40;21.30;;;2.10;99.90;;;;;;4993023;28;20510;-79
2021/11/26 02:31:31;;;;;;;43.85;23.10;;;2.20;99.90;;;;;;4993604;28;20030;-78
2021/11/26 02:33:57;;;;;;;42.58;23.23;;;2.20;99.90;;;;;;4993757;28;20037;-78
2021/11/26 02:36:22;;;;;;;38.58;22.65;;;3.40;99.90;;;;;;4994090;28;20395;-79
2021/11/26 02:38:48;;;;;;;42.72;23.33;;;2.30;99.90;;;;;;4993234;28;20031;-79
2021/11/26 02:41:14;;;;;;;42.00;22.88;;;2.30;99.90;;;;;;4993326;28;20085;-79
2021/11/26 02:43:39;;;;;;;39.38;23.20;;;2.30;99.90;;;;;;4993162;28;20023;-79
2021/11/26 02:46:05;;;;;;;40.92;21.55;;;2.20;99.90;;;;;;4993465;28;20407;-78
2021/11/26 02:48:30;;;;;;;40.50;22.55;;;2.30;99.90;;;;;;4991376;28;20026;-79
2021/11/26 02:50:56;;;;;;;42.15;22.80;;;2.30;99.90;;;;;;4993371;28;20033;-78
2021/11/26 02:53:22;;;;;;;41.15;21.95;;;2.40;99.90;;;;;;4993280;28;20407;-77
2021/11/26 02:55:48;;;;;;;42.10;22.10;;;2.40;99.90;;;;;;4993003;28;20026;-77
2021/11/26 02:58:14;;;;;;;40.83;23.08;;;3.60;99.90;;;;;;4992503;28;20117;-78
2021/11/26 03:00:44;;;;;;;42.10;22.13;;;3.20;99.90;;;;;;4991978;28;20470;-77
2021/11/26 03:03:09;;;;;;;40.50;22.23;;;2.40;99.90;;;;;;4991800;28;20047;-78
2021/11/26 03:05:35;;;;;;;43.17;22.77;;;2.30;99.90;;;;;;4992640;28;20114;-79
2021/11/26 03:08:01;;;;;;;39.53;21.40;;;2.40;99.90;;;;;;4990149;28;20023;-79
2021/11/26 03:10:27;;;;;;;42.13;22.83;;;2.30;99.90;;;;;;4979294;28;20034;-78
2021/11/26 03:13:00;;;;;;;42.78;23.13;;;2.10;99.90;;;;;;4992422;28;20120;-77
2021/11/26 03:15:26;;;;;;;42.67;22.70;;;2.30;99.90;;;;;;5009692;28;20050;-79
2021/11/26 03:17:52;;;;;;;40.15;22.02;;;2.30;99.90;;;;;;5007664;28;20411;-78
2021/11/26 03:20:19;;;;;;;39.50;22.40;;;2.30;99.90;;;;;;4991099;28;20034;-78
2021/11/26 03:22:44;;;;;;;44.30;23.20;;;2.20;99.90;;;;;;4995144;28;20122;-78
2021/11/26 03:25:11;;;;;;;41.78;23.13;;;2.20;99.90;;;;;;4978278;28;20515;-78
2021/11/26 03:27:37;;;;;;;41.55;22.70;;;2.20;99.90;;;;;;4997526;28;20111;-78
2021/11/26 03:30:05;;;;;;;44.50;23.45;;;2.20;99.90;;;;;;4997240;28;20030;-77
2021/11/26 03:32:30;;;;;;;41.60;23.33;;;2.30;99.90;;;;;;4996798;28;20426;-78
2021/11/26 03:34:56;;;;;;;43.67;23.42;;;2.20;99.90;;;;;;4995948;28;20093;-79
2021/11/26 03:37:22;;;;;;;39.95;22.52;;;2.30;99.90;;;;;;4996004;28;20132;-78
2021/11/26 03:39:48;;;;;;;44.50;23.48;;;2.30;99.90;;;;;;4994412;28;20026;-79
2021/11/26 03:42:14;;;;;;;46.35;23.58;;;2.10;99.90;;;;;;4995492;28;20049;-78
2021/11/26 03:44:39;;;;;;;48.25;23.55;;;2.30;99.90;;;;;;4995213;28;20034;-78
2021/11/26 03:47:05;;;;;;;44.30;23.35;;;2.40;99.90;;;;;;4995341;28;20041;-79
2021/11/26 03:49:30;;;;;;;41.92;21.45;;;2.40;99.90;;;;;;4994391;28;20022;-79
2021/11/26 03:51:56;;;;;;;41.50;22.13;;;2.30;99.90;;;;;;4995771;28;20034;-79
2021/11/26 03:54:22;;;;;;;42.50;22.42;;;2.30;99.90;;;;;;4995686;28;20026;-78
2021/11/26 03:56:47;;;;;;;43.13;23.52;;;2.20;99.90;;;;;;4995518;28;20037;-79
2021/11/26 03:59:13;;;;;;;44.10;23.55;;;2.10;99.90;;;;;;4994979;28;20035;-79
2021/11/26 04:01:38;;;;;;;40.85;22.42;;;2.30;99.90;;;;;;4995292;28;20030;-79
2021/11/26 04:04:04;;;;;;;42.20;22.33;;;2.20;99.90;;;;;;4995050;28;20061;-78
2021/11/26 04:06:30;;;;;;;42.08;22.52;;;2.20;99.90;;;;;;4995306;28;20041;-78
2021/11/26 04:08:55;;;;;;;38.88;21.40;;;2.00;99.90;;;;;;4994609;28;20057;-78
2021/11/26 04:11:21;;;;;;;37.35;22.23;;;2.20;99.90;;;;;;4995097;28;20045;-78
2021/11/26 04:13:47;;;;;;;40.42;22.58;;;2.10;99.90;;;;;;4994777;28;20085;-79
2021/11/26 04:16:14;;;;;;;41.60;22.45;;;2.20;99.90;;;;;;4994990;28;20033;-78
2021/11/26 04:18:43;;;;;;;41.35;23.45;;;2.30;99.90;;;;;;4994062;28;20035;-79
2021/11/26 04:21:09;;;;;;;40.67;23.25;;;2.20;99.90;;;;;;4994916;28;20036;-78
2021/11/26 04:23:35;;;;;;;41.30;22.58;;;2.20;99.90;;;;;;4994665;28;20084;-78
2021/11/26 04:26:01;;;;;;;42.78;23.27;;;2.30;99.90;;;;;;4994491;28;20050;-79
2021/11/26 04:28:27;;;;;;;39.20;22.15;;;2.20;99.90;;;;;;4993888;28;20022;-79
2021/11/26 04:30:55;;;;;;;45.72;24.08;;;2.30;99.90;;;;;;4976798;28;20491;-78
2021/11/26 04:33:21;;;;;;;40.15;22.95;;;2.10;99.90;;;;;;4993217;28;20029;-78
2021/11/26 04:35:48;;;;;;;44.47;23.17;;;2.30;99.90;;;;;;4994074;28;20113;-78
2021/11/26 04:38:14;;;;;;;38.13;22.05;;;2.20;99.90;;;;;;4994118;28;20046;-78
2021/11/26 04:40:40;;;;;;;40.72;23.02;;;2.30;99.90;;;;;;4994586;28;20022;-78
2021/11/26 04:43:06;;;;;;;44.33;23.13;;;2.20;99.90;;;;;;4995708;28;20076;-79
2021/11/26 04:45:31;;;;;;;42.30;22.95;;;3.20;99.90;;;;;;4994110;28;20101;-79
2021/11/26 04:47:57;;;;;;;42.22;22.77;;;2.30;99.90;;;;;;4995272;28;20517;-78
2021/11/26 04:50:23;;;;;;;45.80;24.50;;;2.30;99.90;;;;;;4994485;28;20041;-79
2021/11/26 04:52:48;;;;;;;41.90;22.45;;;2.20;99.90;;;;;;4996205;28;20034;-79
2021/11/26 04:55:15;;;;;;;39.53;22.23;;;2.20;99.90;;;;;;4994684;28;20113;-79
2021/11/26 04:57:41;;;;;;;49.78;25.13;;;2.30;99.90;;;;;;4994945;28;20030;-79
2021/11/26 05:00:08;;;;;;;43.83;23.90;;;1.90;99.90;;;;;;4994050;28;20037;-79
2021/11/26 05:02:33;;;;;;;44.22;23.70;;;1.80;99.90;;;;;;4977486;28;20030;-79
2021/11/26 05:04:59;;;;;;;42.17;23.13;;;1.70;99.90;;;;;;4994380;28;20057;-79
2021/11/26 05:07:25;;;;;;;46.50;24.73;;;1.60;99.90;;;;;;4994144;28;20097;-78
2021/11/26 05:09:52;;;;;;;41.92;23.70;;;1.80;99.90;;;;;;4989778;28;20348;-79
2021/11/26 05:12:19;;;;;;;38.60;22.20;;;1.80;99.90;;;;;;4994518;28;20041;-79
2021/11/26 05:14:45;;;;;;;44.95;23.08;;;1.90;99.90;;;;;;4994282;28;20030;-79
2021/11/26 05:17:10;;;;;;;47.17;25.17;;;1.80;99.90;;;;;;4994333;28;20110;-79
2021/11/26 05:19:36;;;;;;;48.88;25.52;;;1.80;99.90;;;;;;4992936;28;20487;-78
2021/11/26 05:22:01;;;;;;;42.95;24.60;;;1.80;99.90;;;;;;4994057;28;20018;-78
2021/11/26 05:24:27;;;;;;;46.67;24.67;;;2.10;99.90;;;;;;4993526;28;20026;-79
2021/11/26 05:26:53;;;;;;;42.55;23.88;;;2.00;99.90;;;;;;4995337;28;20105;-79
2021/11/26 05:29:18;;;;;;;45.00;23.50;;;2.10;99.90;;;;;;4976895;28;20112;-79
2021/11/26 05:31:44;;;;;;;41.90;24.85;;;2.00;99.90;;;;;;4995045;28;20062;-78
2021/11/26 05:34:11;;;;;;;44.45;24.17;;;2.00;99.90;;;;;;4995286;28;20023;-79
2021/11/26 05:36:37;;;;;;;42.10;22.77;;;2.00;99.90;;;;;;4995823;28;20030;-78
2021/11/26 05:39:06;;;;;;;42.50;23.88;;;2.00;99.90;;;;;;4991308;28;20026;-79
2021/11/26 05:41:32;;;;;;;42.50;23.85;;;2.10;99.90;;;;;;4996234;28;20109;-79
2021/11/26 05:43:58;;;;;;;44.80;23.77;;;1.90;99.90;;;;;;4995996;28;20062;-79
2021/11/26 05:46:24;;;;;;;39.80;22.73;;;2.10;99.90;;;;;;4996428;28;20023;-79
2021/11/26 05:48:49;;;;;;;43.88;23.52;;;2.20;99.90;;;;;;4994959;28;20034;-79
2021/11/26 05:51:15;;;;;;;43.35;23.85;;;2.10;99.90;;;;;;4996180;28;20113;-79
2021/11/26 05:53:41;;;;;;;43.40;23.00;;;2.20;99.90;;;;;;4996251;28;20037;-79
2021/11/26 05:56:06;;;;;;;40.35;21.48;;;2.20;99.90;;;;;;4995987;28;20041;-79
2021/11/26 05:58:33;;;;;;;40.30;21.48;;;2.00;99.90;;;;;;4978084;28;20030;-80
2021/11/26 06:00:59;;;;;;;40.65;22.67;;;2.20;99.90;;;;;;4996594;28;20534;-79
2021/11/26 06:03:25;;;;;;;37.13;20.42;;;2.10;99.90;;;;;;4996271;28;20042;-79
2021/11/26 06:05:51;;;;;;;43.35;22.25;;;3.00;99.90;;;;;;4997411;28;20022;-79
2021/11/26 06:08:17;;;;;;;42.97;22.02;;;2.10;99.90;;;;;;5001225;28;20094;-79
2021/11/26 06:10:43;;;;;;;38.78;22.65;;;2.10;99.90;;;;;;5001502;28;20029;-80
2021/11/26 06:13:09;;;;;;;41.55;23.65;;;2.10;99.90;;;;;;5001486;28;20042;-79
2021/11/26 06:15:34;;;;;;;43.30;22.98;;;2.00;99.90;;;;;;5000761;28;20086;-79
2021/11/26 06:18:00;;;;;;;42.45;22.92;;;1.90;99.90;;;;;;5000604;28;20050;-78
2021/11/26 06:20:26;;;;;;;42.58;23.92;;;2.00;99.90;;;;;;4986490;28;20034;-79
2021/11/26 06:22:52;;;;;;;41.65;23.35;;;3.40;99.90;;;;;;5002159;28;20023;-79
2021/11/26 06:25:20;;;;;;;41.65;22.77;;;2.10;99.90;;;;;;5000931;28;20061;-78
2021/11/26 06:27:48;;;;;;;40.47;21.88;;;2.00;99.90;;;;;;4990035;28;20053;-79
2021/11/26 06:30:16;;;;;;;40.58;22.67;;;2.10;99.90;;;;;;4995101;28;20062;-77
2021/11/26 06:32:43;;;;;;;45.70;22.95;;;2.10;99.90;;;;;;4993542;28;20041;-77
2021/11/26 06:35:11;;;;;;;44.58;22.40;;;2.10;99.90;;;;;;4993192;28;20327;-77
2021/11/26 06:37:37;;;;;;;40.33;21.30;;;2.10;99.90;;;;;;4993880;28;20149;-77
2021/11/26 06:40:05;;;;;;;39.90;21.25;;;2.00;99.90;;;;;;4984065;28;20042;-77
2021/11/26 06:42:31;;;;;;;40.30;20.48;;;2.10;99.90;;;;;;4979206;28;20030;-77
2021/11/26 06:44:56;;;;;;;37.17;20.45;;;1.90;99.90;;;;;;4982390;28;20019;-78
2021/11/26 06:47:22;;;;;;;38.40;21.65;;;2.10;99.90;;;;;;4973370;28;20589;-77
2021/11/26 06:49:48;;;;;;;37.20;21.30;;;2.00;99.90;;;;;;4989521;28;20041;-78
2021/11/26 06:52:15;;;;;;;42.83;22.95;;;2.10;99.90;;;;;;4992306;28;20495;-78
2021/11/26 06:54:40;;;;;;;39.80;21.77;;;2.10;99.90;;;;;;4992572;28;20042;-76
2021/11/26 06:57:06;;;;;;;38.85;21.00;;;2.10;99.90;;;;;;4978030;28;20038;-79
2021/11/26 06:59:32;;;;;;;41.45;21.98;;;2.20;99.90;;;;;;4995444;28;20436;-77
2021/11/26 07:01:57;;;;;;;40.30;21.92;;;2.10;99.90;;;;;;4996399;28;20022;-77
2021/11/26 07:04:23;;;;;;;45.60;22.15;;;2.10;99.90;;;;;;4995692;28;20026;-78
2021/11/26 07:06:49;;;;;;;40.80;22.52;;;2.10;99.90;;;;;;4995974;28;20030;-77
2021/11/26 07:09:15;;;;;;;40.08;21.45;;;2.10;99.90;;;;;;4995121;28;20104;-77
2021/11/26 07:11:41;;;;;;;38.22;21.30;;;2.20;99.90;;;;;;4990570;28;20109;-77
2021/11/26 07:14:07;;;;;;;41.25;22.17;;;2.10;99.90;;;;;;4979559;28;20065;-79
2021/11/26 07:16:33;;;;;;;39.83;20.98;;;2.40;99.90;;;;;;4997397;28;20061;-78
2021/11/26 07:18:59;;;;;;;38.70;22.05;;;2.20;99.90;;;;;;4995608;28;20065;-78
2021/11/26 07:21:24;;;;;;;36.60;21.02;;;2.20;99.90;;;;;;4997027;28;20030;-78
2021/11/26 07:23:50;;;;;;;41.35;22.15;;;3.40;99.90;;;;;;4996603;28;20030;-78
2021/11/26 07:26:16;;;;;;;41.58;21.70;;;2.20;99.90;;;;;;4997119;28;20033;-78
2021/11/26 07:28:42;;;;;;;39.38;21.50;;;3.90;99.90;;;;;;4994820;28;20034;-78
2021/11/26 07:31:08;;;;;;;36.72;21.38;;;2.30;99.90;;;;;;4996336;28;20043;-79
2021/11/26 07:33:34;;;;;;;37.55;22.30;;;2.20;99.90;;;;;;4996119;28;20076;-79
2021/11/26 07:36:00;;;;;;;41.35;22.30;;;2.20;99.90;;;;;;4998011;28;20043;-79
2021/11/26 07:38:25;;;;;;;36.80;20.35;;;3.40;99.90;;;;;;4995312;28;20022;-81
2021/11/26 07:40:52;;;;;;;40.90;21.70;;;4.20;99.90;;;;;;4996205;28;20442;-79
2021/11/26 07:43:19;;;;;;;44.63;21.48;;;2.20;99.90;;;;;;4996522;28;20222;-77
2021/11/26 07:45:46;;;;;;;39.75;21.83;;;2.30;99.90;;;;;;4997447;28;20057;-77
2021/11/26 07:48:12;;;;;;;38.35;21.00;;;2.40;99.90;;;;;;4996257;28;20019;-78
2021/11/26 07:50:37;;;;;;;39.28;21.45;;;2.40;99.90;;;;;;4992380;28;20731;-77
2021/11/26 07:53:03;;;;;;;41.15;21.00;;;2.80;99.90;;;;;;4994856;28;20082;-78
2021/11/26 07:55:29;;;;;;;42.90;22.13;;;2.50;99.90;;;;;;4995195;28;20517;-78
2021/11/26 07:57:55;;;;;;;35.67;21.50;;;2.40;99.90;;;;;;4977476;28;20042;-79
2021/11/26 08:00:20;;;;;;;47.22;23.63;;;2.40;99.90;;;;;;4974005;28;20577;-79
2021/11/26 08:02:46;;;;;;;41.28;21.73;;;2.50;99.90;;;;;;4996375;28;20527;-80
2021/11/26 08:05:12;;;;;;;40.05;21.73;;;2.50;99.90;;;;;;4996113;28;20435;-81
2021/11/26 08:07:38;;;;;;;35.70;20.38;;;2.60;99.90;;;;;;4994454;28;20030;-78
2021/11/26 08:10:09;;;;;;;35.65;20.33;;;2.70;99.90;;;;;;4995316;28;20042;-80
2021/11/26 08:12:38;;;;;;;37.72;21.02;;;2.70;99.90;;;;;;4978067;28;20109;-80
2021/11/26 08:15:10;;;;;;;34.97;19.90;;;2.80;99.90;;;;;;4995701;28;20058;-78
2021/11/26 08:17:36;;;;;;;37.25;20.75;;;2.80;99.90;;;;;;4994962;28;20041;-77
2021/11/26 08:20:05;;;;;;;34.00;19.80;;;2.60;99.90;;;;;;4993980;28;20034;-78
2021/11/26 08:22:30;;;;;;;33.30;20.38;;;2.80;99.90;;;;;;4992744;28;20031;-77
2021/11/26 08:24:56;;;;;;;36.55;20.13;;;3.10;99.90;;;;;;4994228;28;20558;-77
2021/11/26 08:27:22;;;;;;;31.45;18.55;;;2.90;99.90;;;;;;4994129;28;20037;-77
2021/11/26 08:29:47;;;;;;;27.63;16.02;;;2.80;99.90;;;;;;4992397;28;20394;-78
2021/11/26 08:32:13;;;;;;;33.10;18.08;;;2.80;99.90;;;;;;4988175;28;20034;-77
2021/11/26 08:34:38;;;;;;;31.88;17.63;;;3.00;99.90;;;;;;4990574;28;20535;-77
2021/11/26 08:37:04;;;;;;;30.52;17.52;;;2.70;99.90;;;;;;4990217;28;20122;-77
2021/11/26 08:39:30;;;;;;;29.52;17.40;;;2.90;99.90;;;;;;4992375;28;20121;-78
2021/11/26 08:41:56;;;;;;;29.00;16.27;;;2.90;99.90;;;;;;4990301;28;20026;-78
2021/11/26 08:44:22;;;;;;;27.13;16.38;;;2.90;99.90;;;;;;4990383;28;20109;-78
2021/11/26 08:46:48;;;;;;;31.17;17.58;;;3.70;99.90;;;;;;4994639;28;20502;-77
2021/11/26 08:49:13;;;;;;;27.67;15.98;;;3.90;99.90;;;;;;4997306;28;20034;-78
2021/11/26 08:51:42;;;;;;;28.23;16.50;;;3.40;99.90;;;;;;4989580;28;20114;-77
2021/11/26 08:54:07;;;;;;;31.65;17.70;;;3.20;99.90;;;;;;4990027;28;20044;-78
2021/11/26 08:56:33;;;;;;;32.50;17.17;;;3.20;99.90;;;;;;4990779;28;20035;-77
2021/11/26 08:59:01;;;;;;;29.42;16.70;;;3.90;99.90;;;;;;4989232;28;20092;-77
2021/11/26 09:01:31;;;;;;;31.10;18.27;;;3.20;99.90;;;;;;4972002;28;20121;-78
2021/11/26 09:03:57;;;;;;;27.83;16.77;;;3.30;99.90;;;;;;4976811;28;20058;-77
2021/11/26 09:06:24;;;;;;;27.48;16.70;;;3.30;99.90;;;;;;4971002;28;20110;-76
2021/11/26 09:08:50;;;;;;;35.40;18.50;;;3.30;99.90;;;;;;4970721;28;20118;-77
2021/11/26 09:11:16;;;;;;;29.92;16.17;;;4.50;99.90;;;;;;4985572;28;20037;-76
2021/11/26 09:13:43;;;;;;;30.45;17.90;;;3.30;99.90;;;;;;4993755;28;20029;-77
2021/11/26 09:16:09;;;;;;;27.50;16.08;;;3.30;99.90;;;;;;5005283;28;21007;-79
2021/11/26 09:18:35;;;;;;;28.95;16.73;;;4.50;99.90;;;;;;4988866;28;20061;-78
2021/11/26 09:21:01;;;;;;;28.02;17.00;;;3.70;99.90;;;;;;4990767;28;20113;-77
2021/11/26 09:23:27;;;;;;;27.77;16.33;;;3.50;99.90;;;;;;4999816;28;20058;-79
2021/11/26 09:25:56;;;;;;;25.77;15.38;;;3.60;99.90;;;;;;5009307;28;20018;-80
2021/11/26 09:28:22;;;;;;;28.15;15.77;;;3.60;99.90;;;;;;5014145;28;20014;-79
2021/11/26 09:30:49;;;;;;;25.05;14.98;;;4.70;99.90;;;;;;5009564;28;20087;-79
2021/11/26 09:33:19;;;;;;;27.63;16.48;;;4.00;99.90;;;;;;5015320;28;20014;-79
2021/11/26 09:35:45;;;;;;;24.00;14.75;;;3.70;99.90;;;;;;5017290;28;20025;-78
2021/11/26 09:38:10;;;;;;;26.10;15.68;;;3.60;99.90;;;;;;5015889;28;20030;-78
2021/11/26 09:40:37;;;;;;;26.58;15.48;;;4.10;99.90;;;;;;5015102;28;20038;-79
2021/11/26 09:43:05;;;;;;;25.38;15.38;;;3.70;99.90;;;;;;5015789;28;20078;-77
2021/11/26 09:45:33;;;;;;;25.17;15.63;;;3.60;99.90;;;;;;5015546;28;20018;-79
2021/11/26 09:47:59;;;;;;;28.67;15.43;;;3.80;99.90;;;;;;5014828;28;20022;-76
2021/11/26 09:50:27;;;;;;;28.17;15.65;;;3.80;99.90;;;;;;5015048;28;20038;-78
2021/11/26 09:53:14;;;;;;;24.55;15.07;;;4.30;99.90;;;;;;4996746;28;20031;-77
2021/11/26 09:56:02;;;;;;;26.63;14.95;;;4.00;99.90;;;;;;4998057;28;20038;-79
2021/11/26 09:58:29;;;;;;;25.27;15.40;;;4.00;99.90;;;;;;5003783;28;20027;-79
2021/11/26 10:00:56;;;;;;;22.60;13.70;;;4.20;99.90;;;;;;5019064;28;20071;-78
2021/11/26 10:03:23;;;;;;;29.17;16.15;;;4.00;99.90;;;;;;5015763;28;20022;-77
2021/11/26 10:05:49;;;;;;;30.17;15.77;;;3.90;99.90;;;;;;5011449;28;20031;-76
2021/11/26 10:08:23;;;;;;;31.60;16.25;;;4.00;99.90;;;;;;5012210;28;20094;-77
2021/11/26 10:10:49;;;;;;;28.08;16.38;;;4.20;99.90;;;;;;5013055;28;20034;-78
2021/11/26 10:13:19;;;;;;;27.38;15.93;;;4.20;99.90;;;;;;5012692;28;20037;-78
2021/11/26 10:15:47;;;;;;;32.33;17.77;;;4.20;99.90;;;;;;5012529;28;20034;-79
2021/11/26 10:18:19;;;;;;;26.13;15.57;;;6.10;99.90;;;;;;5009864;28;20045;-78
2021/11/26 10:20:59;;;;;;;27.85;15.95;;;4.50;99.90;;;;;;5009442;28;20039;-77
2021/11/26 10:23:28;;;;;;;30.15;17.25;;;4.30;99.90;;;;;;5001153;28;20076;-76
2021/11/26 10:25:57;;;;;;;29.77;17.50;;;4.00;99.90;;;;;;5000287;28;20088;-77
2021/11/26 10:28:23;;;;;;;31.48;18.45;;;4.50;99.90;;;;;;4999699;28;20030;-76
2021/11/26 10:30:49;;;;;;;30.88;18.27;;;4.50;99.90;;;;;;4994235;28;20023;-77
2021/11/26 10:33:17;;;;;;;29.58;16.80;;;6.10;99.90;;;;;;4997167;28;20025;-77
2021/11/26 10:35:53;;;;;;;36.40;17.70;;;4.90;99.90;;;;;;4997169;28;20033;-77
2021/11/26 10:38:30;;;;;;;33.17;17.42;;;4.30;99.90;;;;;;4996661;28;20105;-77
2021/11/26 10:41:04;;;;;;;33.58;17.27;;;4.20;99.90;;;;;;4996742;28;20096;-77
2021/11/26 10:43:58;;;;;;;31.02;17.58;;;4.20;99.90;;;;;;4977069;28;20022;-76
2021/11/26 10:59:42;;;;;;;38.10;20.27;;;4.10;99.90;;;;;;4997416;28;20166;-78
2021/11/26 11:02:08;;;;;;;39.20;20.63;;;6.00;99.90;;;;;;5003430;28;20026;-80
2021/11/26 11:04:35;;;;;;;36.05;19.08;;;4.30;99.90;;;;;;4996810;28;20038;-81
2021/11/26 11:07:02;;;;;;;33.47;19.77;;;3.90;99.90;;;;;;4996404;28;20035;-78
2021/11/26 11:09:46;;;;;;;32.40;18.23;;;6.00;99.90;;;;;;4996127;28;20030;-79
2021/11/26 11:12:13;;;;;;;33.47;17.70;;;4.00;99.90;;;;;;4995690;28;20124;-76
2021/11/26 11:14:39;;;;;;;28.73;17.35;;;4.00;99.90;;;;;;4995413;28;20325;-78
2021/11/26 11:17:06;;;;;;;30.67;18.75;;;4.00;99.90;;;;;;4985546;28;20031;-78
2021/11/26 11:19:32;;;;;;;39.63;22.25;;;4.20;99.90;;;;;;4990103;28;20193;-79
2021/11/26 11:21:58;;;;;;;31.95;19.17;;;4.00;99.90;;;;;;4978533;28;20493;-78
2021/11/26 11:24:26;;;;;;;30.67;18.08;;;4.20;99.90;;;;;;4996534;28;20038;-78
2021/11/26 11:26:53;;;;;;;31.00;18.20;;;4.50;99.90;;;;;;4980116;28;20026;-76
2021/11/26 11:29:22;;;;;;;34.28;18.60;;;5.80;99.90;;;;;;4996216;28;20027;-79
2021/11/26 11:31:48;;;;;;;27.23;15.52;;;4.30;99.90;;;;;;4996822;28;20026;-76
2021/11/26 11:34:17;;;;;;;29.48;17.55;;;4.30;99.90;;;;;;4996599;28;20081;-78
2021/11/26 11:36:44;;;;;;;28.38;17.08;;;4.30;99.90;;;;;;4998254;28;20042;-79
2021/11/26 11:39:10;;;;;;;32.33;18.80;;;4.30;99.90;;;;;;4996800;28;20030;-80
2021/11/26 11:41:58;;;;;;;35.17;19.38;;;4.30;99.90;;;;;;4998203;28;20069;-78
2021/11/26 11:44:32;;;;;;;30.65;18.83;;;4.50;99.90;;;;;;4998571;28;20077;-81
2021/11/26 11:47:01;;;;;;;31.73;18.98;;;4.80;99.90;;;;;;4999632;28;20022;-78
2021/11/26 11:49:30;;;;;;;32.15;19.48;;;4.60;99.90;;;;;;4998997;28;20035;-78
2021/11/26 11:52:01;;;;;;;28.80;16.98;;;4.60;99.90;;;;;;4994768;28;20412;-79
2021/11/26 11:54:47;;;;;;;32.40;19.70;;;4.70;99.90;;;;;;4995236;28;20026;-78
2021/11/26 11:57:24;;;;;;;30.10;18.15;;;5.80;99.90;;;;;;4977868;28;20040;-76
2021/11/26 11:59:52;;;;;;;34.17;18.92;;;4.60;99.90;;;;;;4994556;28;20077;-80
2021/11/26 12:02:27;;;;;;;31.70;18.80;;;5.50;99.90;;;;;;4977805;28;20027;-78
2021/11/26 12:04:54;;;;;;;29.90;17.13;;;4.50;99.90;;;;;;4993849;28;20411;-78
2021/11/26 12:07:29;;;;;;;32.63;18.35;;;4.40;99.90;;;;;;4994588;28;20608;-78
2021/11/26 12:10:05;;;;;;;33.00;18.48;;;4.40;99.90;;;;;;4993779;28;20045;-78
2021/11/26 12:12:31;;;;;;;35.15;18.38;;;4.50;99.90;;;;;;4994595;28;20034;-78
2021/11/26 12:14:59;;;;;;;31.15;16.70;;;4.40;99.90;;;;;;4994612;28;20069;-78
2021/11/26 12:17:32;;;;;;;28.35;17.13;;;4.50;99.90;;;;;;4994568;28;20034;-78
2021/11/26 12:20:17;;;;;;;31.40;18.23;;;4.60;99.90;;;;;;4993621;28;20059;-78
2021/11/26 12:22:51;;;;;;;30.55;17.65;;;4.70;99.90;;;;;;4995083;28;20030;-78
2021/11/26 12:26:02;;;;;;;32.83;17.00;;;4.80;99.90;;;;;;4995323;28;20054;-78
2021/11/26 12:28:43;;;;;;;40.22;21.17;;;4.80;99.90;;;;;;4993643;28;20023;-78
2021/11/26 12:31:10;;;;;;;34.72;18.88;;;4.80;99.90;;;;;;4974759;28;20546;-77
2021/11/26 12:33:37;;;;;;;31.88;17.42;;;5.10;99.90;;;;;;4957765;28;20058;-78
2021/11/26 12:36:10;;;;;;;29.25;16.95;;;4.80;99.90;;;;;;4974682;28;20062;-78
2021/11/26 12:38:38;;;;;;;30.40;17.50;;;5.10;99.90;;;;;;4977450;28;20069;-78
2021/11/26 12:41:05;;;;;;;34.17;17.58;;;4.90;99.90;;;;;;4994160;28;20034;-78
2021/11/26 12:43:48;;;;;;;28.30;16.27;;;5.50;99.90;;;;;;4994145;28;20018;-77
2021/11/26 12:46:27;;;;;;;;;;;4.90;99.90;;;;;;4994908;28;20030;-78
2021/11/26 12:51:50;;;;;;;30.58;17.50;;;4.60;99.90;;;;;;4993998;28;20114;-78
2021/11/26 12:54:35;;;;;;;31.63;17.98;;;4.60;99.90;;;;;;4988395;28;20530;-78
2021/11/26 12:57:08;;;;;;;27.48;16.63;;;4.70;99.90;;;;;;4973320;28;20499;-77